createdAt,value
2023-04-18T05:44:40.865Z,99899.28
2023-04-18T05:47:28.627Z,99899.28
2023-04-18T05:50:14.315Z,99903.41
2023-04-18T05:52:59.699Z,99903.97
2023-04-18T05:55:46.724Z,99904.91
2023-04-18T05:58:32.057Z,99909.06
2023-04-18T06:01:20.294Z,99910.03
2023-04-18T06:04:05.626Z,99912.44
2023-04-18T06:06:51.501Z,99917.84
2023-04-18T06:09:37.324Z,99907.28
2023-04-18T06:12:22.909Z,99926.16
2023-04-18T06:15:08.924Z,99929.50
2023-04-18T06:18:01.772Z,99926.84
2023-04-18T06:20:47.335Z,99928.34
2023-04-18T06:23:33.861Z,99930.50
2023-04-18T06:26:19.556Z,99926.53
2023-04-18T06:29:04.853Z,99933.44
2023-04-18T06:31:52.051Z,99924.00
2023-04-18T06:34:38.475Z,99930.50
2023-04-18T06:37:24.665Z,99937.78
2023-04-18T06:40:13.837Z,99941.59
2023-04-18T06:43:00.362Z,99933.34
2023-04-18T06:45:45.798Z,99947.00
2023-04-18T06:48:32.035Z,99952.88
2023-04-18T06:51:21.345Z,99951.19
2023-04-18T06:54:07.144Z,99950.91
2023-04-18T06:56:59.463Z,99963.28
2023-04-18T06:59:44.994Z,99958.94
2023-04-18T07:02:30.771Z,99962.13
2023-04-18T07:05:16.436Z,99958.22
2023-04-18T07:08:03.285Z,99961.75
2023-04-18T07:10:48.495Z,99964.81
2023-04-18T07:13:34.161Z,99958.69
2023-04-18T07:16:21.029Z,99971.81
2023-04-18T07:19:06.842Z,99963.28
2023-04-18T07:21:52.400Z,99953.41
2023-04-18T07:24:39.513Z,99971.44
2023-04-18T07:27:24.873Z,99978.41
2023-04-18T07:30:10.858Z,99973.22
2023-04-18T07:32:57.164Z,99975.56
2023-04-18T07:35:46.171Z,99978.63
2023-04-18T07:38:35.537Z,99978.19
2023-04-18T07:41:21.332Z,99979.13
2023-04-18T07:44:07.929Z,99969.59
2023-04-18T07:46:53.274Z,99965.25
2023-04-18T07:49:38.965Z,99984.00
2023-04-18T07:52:25.124Z,99984.06
2023-04-18T07:55:14.076Z,99992.84
2023-04-18T07:58:00.819Z,99997.16
2023-04-18T08:00:46.436Z,99993.69
2023-04-18T08:03:33.762Z,99994.31
2023-04-18T08:06:19.643Z,99996.28
2023-04-18T08:09:06.159Z,99999.09
2023-04-18T08:11:51.823Z,100005.78
2023-04-18T08:14:38.722Z,99999.31
2023-04-18T08:17:23.912Z,99996.97
2023-04-18T08:20:10.943Z,100005.16
2023-04-18T08:23:05.618Z,99996.00
2023-04-18T08:25:54.138Z,100008.41
2023-04-18T08:28:41.217Z,100010.94
2023-04-18T08:31:29.885Z,100008.84
2023-04-18T08:34:15.489Z,100010.19
2023-04-18T08:37:01.113Z,100020.75
2023-04-18T08:39:46.544Z,100009.16
2023-04-18T08:42:34.242Z,100002.72
2023-04-18T08:45:22.666Z,100019.03
2023-04-18T08:48:16.539Z,100024.50
2023-04-18T08:51:03.184Z,100013.69
2023-04-18T08:53:50.772Z,100037.94
2023-04-18T08:56:37.859Z,100025.53
2023-04-18T08:59:25.447Z,100034.97
2023-04-18T09:02:12.410Z,100036.63
2023-04-18T09:04:57.892Z,100029.44
2023-04-18T09:07:43.394Z,100037.84
2023-04-18T09:10:33.864Z,100044.63
2023-04-18T09:13:39.790Z,100040.87
2023-04-18T09:16:27.485Z,100047.25
2023-04-18T09:19:18.153Z,100040.37
2023-04-18T09:22:04.950Z,100035.25
2023-04-18T09:24:53.889Z,100034.03
2023-04-18T09:27:40.915Z,100020.59
2023-04-18T09:30:40.678Z,100048.59
2023-04-18T09:33:28.468Z,100048.91
2023-04-18T09:36:27.128Z,100040.59
2023-04-18T09:39:31.152Z,100040.87
2023-04-18T09:42:17.508Z,100049.81
2023-04-18T09:45:05.501Z,100050.69
2023-04-18T09:47:51.630Z,100050.69
2023-04-18T09:50:39.620Z,100042.41
2023-04-18T09:53:25.653Z,100047.13
2023-04-18T09:56:27.351Z,100051.34
2023-04-18T09:59:16.031Z,100047.88
2023-04-18T10:02:03.659Z,100044.22
2023-04-18T10:04:54.582Z,100049.88
2023-04-18T10:07:42.095Z,100047.28
2023-04-18T10:10:27.239Z,100051.25
2023-04-18T10:13:14.218Z,100050.13
2023-04-18T10:16:03.037Z,100047.81
2023-04-18T10:18:50.083Z,100043.47
2023-04-18T10:21:35.908Z,100046.06
2023-04-18T10:24:56.378Z,100055.97
2023-04-18T10:27:48.199Z,100055.47
2023-04-18T10:30:44.325Z,100044.84
2023-04-18T10:33:35.838Z,100054.88
2023-04-18T10:36:28.537Z,100060.81
2023-04-18T10:39:22.351Z,100043.16
2023-04-18T10:42:08.274Z,100060.87
2023-04-18T10:45:25.067Z,100058.81
2023-04-18T10:48:29.724Z,100056.84
2023-04-18T10:51:21.067Z,100062.12
2023-04-18T10:54:21.221Z,100059.53
2023-04-18T10:57:16.172Z,100053.06
2023-04-18T11:00:01.664Z,100058.59
2023-04-18T11:02:57.796Z,100053.31
2023-04-18T11:05:44.391Z,100052.09
2023-04-18T11:08:30.302Z,100048.69
2023-04-18T11:11:16.142Z,100061.41
2023-04-18T11:14:01.561Z,100057.72
2023-04-18T11:16:47.047Z,100057.72
2023-04-18T11:19:32.488Z,100047.88
2023-04-18T11:22:19.461Z,100055.38
2023-04-18T11:25:09.269Z,100060.00
2023-04-18T11:27:57.326Z,100064.91
2023-04-18T11:30:42.850Z,100067.47
2023-04-18T11:33:29.562Z,100071.66
2023-04-18T11:36:15.470Z,100074.87
2023-04-18T11:39:01.092Z,100076.88
2023-04-18T11:41:50.557Z,100066.44
2023-04-18T11:44:39.847Z,100082.62
2023-04-18T11:47:26.918Z,100079.59
2023-04-18T11:50:13.995Z,100073.66
2023-04-18T11:52:59.355Z,100081.37
2023-04-18T11:55:55.053Z,100075.13
2023-04-18T11:58:40.323Z,100072.50
2023-04-18T12:01:27.140Z,100073.75
2023-04-18T12:04:12.918Z,100078.31
2023-04-18T12:06:58.899Z,100073.78
2023-04-18T12:09:44.378Z,100067.00
2023-04-18T12:12:29.847Z,100075.59
2023-04-18T12:15:16.784Z,100075.06
2023-04-18T12:18:05.033Z,100080.53
2023-04-18T12:20:52.650Z,100057.66
2023-04-18T12:23:40.408Z,100073.44
2023-04-18T12:26:26.796Z,100075.47
2023-04-18T12:29:13.713Z,100075.06
2023-04-18T12:31:59.330Z,100057.97
